createdAt,value
2023-01-29T00:19:26.252Z,72.14
2023-01-29T01:04:53.961Z,74.27
2023-01-29T01:07:15.894Z,73.84
2023-01-29T01:10:00.675Z,74.03
2023-01-29T01:12:23.319Z,73.92
2023-01-29T01:14:46.159Z,73.68
2023-01-29T01:17:10.159Z,74.05
2023-01-29T01:19:34.051Z,73.71
2023-01-29T01:21:55.965Z,74.05
2023-01-29T01:24:17.820Z,73.70
2023-01-29T01:26:40.200Z,73.58
2023-01-29T01:29:02.159Z,73.54
2023-01-29T01:31:24.354Z,73.41
2023-01-29T01:33:46.338Z,73.54
2023-01-29T01:36:11.508Z,73.29
2023-01-29T01:38:33.455Z,73.12
2023-01-29T01:40:55.344Z,73.11
2023-01-29T01:43:17.228Z,73.49
2023-01-29T01:45:39.341Z,73.54
2023-01-29T01:48:18.869Z,73.14
2023-01-29T01:51:04.793Z,73.63
2023-01-29T01:53:38.758Z,72.86
2023-01-29T01:56:06.228Z,72.79
2023-01-29T01:58:37.440Z,73.34
2023-01-29T02:00:59.827Z,73.69
2023-01-29T02:03:43.135Z,73.04
2023-01-29T02:06:24.704Z,73.48
2023-01-29T02:09:16.460Z,73.64
2023-01-29T02:11:38.750Z,73.69
2023-01-29T02:14:01.375Z,73.33
2023-01-29T02:16:23.986Z,73.99
2023-01-29T02:18:45.892Z,73.65
2023-01-29T02:21:40.929Z,73.52
2023-01-29T02:24:32.953Z,74.01
2023-01-29T02:27:11.732Z,73.50
2023-01-29T02:30:30.503Z,73.81
2023-01-29T02:33:13.069Z,73.87
2023-01-29T02:35:51.345Z,73.27
2023-01-29T02:38:45.519Z,73.02
2023-01-29T02:41:20.760Z,72.78
2023-01-29T02:44:01.104Z,73.67
2023-01-29T02:46:37.994Z,73.70
2023-01-29T02:49:24.408Z,73.38
2023-01-29T02:51:52.115Z,73.25
2023-01-29T02:54:29.165Z,73.52
2023-01-29T02:57:29.293Z,73.67
2023-01-29T03:00:03.035Z,73.93
2023-01-29T03:02:42.999Z,73.74
2023-01-29T03:05:13.414Z,73.97
2023-01-29T03:07:46.334Z,73.99
2023-01-29T03:10:28.787Z,73.70
2023-01-29T03:13:09.938Z,73.50
2023-01-29T03:15:42.864Z,73.94
2023-01-29T03:18:22.828Z,73.80
2023-01-29T03:20:54.218Z,73.80
2023-01-29T03:23:27.161Z,73.81
2023-01-29T03:26:12.953Z,74.03
2023-01-29T03:28:53.639Z,73.93
2023-01-29T03:31:37.198Z,73.92
2023-01-29T03:34:16.685Z,74.09
2023-01-29T03:37:03.555Z,73.97
2023-01-29T03:39:29.496Z,73.66
2023-01-29T03:42:10.178Z,74.17
2023-01-29T03:44:50.325Z,73.70
2023-01-29T03:48:03.695Z,74.19
2023-01-29T03:51:02.176Z,73.77
2023-01-29T03:53:55.642Z,74.27
2023-01-29T03:56:45.565Z,74.59
2023-01-29T03:59:31.586Z,74.60
2023-01-29T04:02:30.488Z,74.30
2023-01-29T04:05:06.136Z,73.91
2023-01-29T04:07:36.843Z,74.00
2023-01-29T04:10:15.560Z,74.36
2023-01-29T04:12:54.229Z,74.36
2023-01-29T04:15:20.532Z,74.67
2023-01-29T04:17:53.416Z,74.18
2023-01-29T04:20:31.570Z,74.97
2023-01-29T04:22:54.403Z,75.18
2023-01-29T04:25:26.796Z,74.50
2023-01-29T04:28:23.625Z,75.00
2023-01-29T04:31:13.406Z,75.04
2023-01-29T04:34:20.562Z,74.96
2023-01-29T04:37:22.648Z,75.14
2023-01-29T04:40:20.815Z,75.17
2023-01-29T04:43:04.464Z,75.29
2023-01-29T04:46:22.011Z,75.08
2023-01-29T04:50:00.576Z,75.74
2023-01-29T04:53:03.109Z,75.01
2023-01-29T04:56:27.571Z,75.08
2023-01-29T05:00:21.474Z,75.98
2023-01-29T05:05:57.562Z,75.95
2023-01-29T05:08:25.133Z,75.71
2023-01-29T05:10:51.144Z,75.18
2023-01-29T05:13:16.989Z,75.07
2023-01-29T05:16:19.472Z,75.06
2023-01-29T05:18:47.058Z,74.93
2023-01-29T05:21:10.571Z,75.11
2023-01-29T05:23:33.526Z,75.50
2023-01-29T05:25:59.286Z,75.21
2023-01-29T05:28:22.753Z,75.46
2023-01-29T05:30:49.461Z,74.95
2023-01-29T05:33:28.066Z,74.76
2023-01-29T05:35:51.366Z,75.23
2023-01-29T05:38:15.342Z,74.97
2023-01-29T05:40:39.950Z,74.96
2023-01-29T05:43:03.055Z,74.95
2023-01-29T05:45:26.502Z,75.12
2023-01-29T05:47:49.759Z,75.26
2023-01-29T05:50:16.461Z,75.15
2023-01-29T05:52:40.060Z,75.18
2023-01-29T05:55:03.811Z,74.83
2023-01-29T05:57:26.899Z,75.35
2023-01-29T05:59:50.437Z,75.32
2023-01-29T06:02:14.824Z,75.00
2023-01-29T06:04:39.316Z,75.28
2023-01-29T06:07:04.481Z,74.86
2023-01-29T06:09:27.874Z,74.65
2023-01-29T06:11:54.531Z,75.34
2023-01-29T06:14:17.998Z,74.48
2023-01-29T06:16:41.535Z,74.91
2023-01-29T06:19:07.439Z,75.03
2023-01-29T06:21:33.645Z,74.77
2023-01-29T06:24:20.653Z,75.25
2023-01-29T06:27:10.930Z,75.19
2023-01-29T06:29:35.767Z,75.18
2023-01-29T06:34:45.160Z,75.13
2023-01-29T06:37:09.291Z,75.35
2023-01-29T06:39:33.472Z,75.31
2023-01-29T06:42:00.844Z,75.60
2023-01-29T06:44:24.658Z,75.30
2023-01-29T06:46:48.060Z,75.61
2023-01-29T06:49:11.135Z,75.24
2023-01-29T06:51:38.236Z,75.19
2023-01-29T06:54:02.842Z,75.33
2023-01-29T06:56:29.160Z,74.91
2023-01-29T06:58:59.646Z,75.41
2023-01-29T07:01:36.209Z,75.90
2023-01-29T07:04:30.907Z,75.15
2023-01-29T07:07:10.307Z,75.02
2023-01-29T07:09:49.767Z,75.77
2023-01-29T07:42:28.228Z,75.61
2023-01-29T07:47:50.459Z,75.51
2023-01-29T07:50:21.415Z,75.72
2023-01-29T07:52:53.572Z,75.60
2023-01-29T07:56:24.843Z,75.39
2023-01-29T07:59:28.451Z,75.62
2023-01-29T08:03:35.125Z,75.52
2023-01-29T08:20:15.188Z,75.54
2023-01-29T08:46:19.293Z,76.17
2023-01-29T08:52:02.402Z,75.91
2023-01-29T08:55:11.096Z,75.88
2023-01-29T08:58:37.288Z,75.98
2023-01-29T09:01:23.432Z,75.75
2023-01-29T09:06:51.407Z,75.83
2023-01-29T09:09:16.731Z,75.47
2023-01-29T09:11:45.740Z,75.43
2023-01-29T09:14:18.650Z,74.99
2023-01-29T09:16:49.606Z,75.36
2023-01-29T09:19:38.308Z,75.21
2023-01-29T09:25:20.674Z,75.16
2023-01-29T09:27:46.350Z,74.80
2023-01-29T09:30:26.200Z,74.80
2023-01-29T09:32:56.512Z,74.92
2023-01-29T09:35:32.109Z,74.77
2023-01-29T09:38:08.032Z,74.73
2023-01-29T09:41:03.415Z,73.93
2023-01-29T09:44:14.362Z,74.13
2023-01-29T09:46:49.881Z,74.50
2023-01-29T09:56:00.775Z,73.56
2023-01-29T09:58:38.710Z,73.55
2023-01-29T10:01:33.359Z,73.94
2023-01-29T10:04:46.967Z,73.66
2023-01-29T10:07:46.971Z,73.66
2023-01-29T10:11:08.701Z,73.88
2023-01-29T10:14:09.900Z,73.65
2023-01-29T10:17:18.500Z,73.50
2023-01-29T10:20:15.592Z,73.21
2023-01-29T10:23:05.360Z,73.25
2023-01-29T10:25:40.354Z,73.42
2023-01-29T10:28:48.766Z,73.10
2023-01-29T10:31:43.768Z,73.33
2023-01-29T10:34:20.005Z,72.78
2023-01-29T10:36:48.902Z,72.79
2023-01-29T10:39:21.637Z,72.79
2023-01-29T10:41:57.319Z,72.99
2023-01-29T10:45:01.247Z,72.86
2023-01-29T10:48:05.170Z,72.55
2023-01-29T10:51:00.722Z,72.54
2023-01-29T10:54:18.450Z,72.56
2023-01-29T10:57:21.247Z,72.55
2023-01-29T11:00:05.256Z,71.89
2023-01-29T11:02:27.244Z,71.93
2023-01-29T11:04:49.140Z,71.35
2023-01-29T11:07:13.826Z,71.66
2023-01-29T11:09:44.502Z,71.15
2023-01-29T11:12:16.582Z,70.86
2023-01-29T11:14:43.298Z,70.51
2023-01-29T11:17:05.222Z,70.62
2023-01-29T11:19:40.551Z,70.15
2023-01-29T11:22:04.281Z,70.38
2023-01-29T11:24:30.799Z,70.37
2023-01-29T11:27:03.893Z,70.33
2023-01-29T11:29:44.775Z,69.85
2023-01-29T11:32:33.138Z,69.80
2023-01-29T11:35:16.698Z,69.32
2023-01-29T11:37:41.642Z,69.46
2023-01-29T11:40:38.876Z,69.20
2023-01-29T11:43:20.859Z,69.51
2023-01-29T11:45:42.650Z,68.95
2023-01-29T11:48:05.133Z,68.58
2023-01-29T11:50:31.819Z,69.02
2023-01-29T11:52:54.951Z,68.54
2023-01-29T11:55:26.222Z,68.61
2023-01-29T11:58:01.630Z,68.21
2023-01-29T12:00:35.039Z,68.13
2023-01-29T12:03:25.280Z,68.30
2023-01-29T12:06:03.512Z,67.67
2023-01-29T12:08:28.286Z,68.24
2023-01-29T12:10:50.573Z,67.60
2023-01-29T12:13:21.199Z,67.36
2023-01-29T12:15:44.970Z,67.38
2023-01-29T12:18:44.511Z,67.20
2023-01-29T12:21:37.923Z,67.05
2023-01-29T12:24:13.262Z,67.14
2023-01-29T12:26:49.345Z,67.13
2023-01-29T12:29:49.461Z,66.88
2023-01-29T12:32:29.571Z,66.97
2023-01-29T12:35:33.403Z,67.18
2023-01-29T12:38:22.012Z,66.99
2023-01-29T12:41:13.232Z,66.85
2023-01-29T12:43:50.659Z,67.23
2023-01-29T12:46:26.457Z,67.04
2023-01-29T12:48:51.354Z,66.80
2023-01-29T12:51:23.301Z,66.83
2023-01-29T12:53:56.512Z,67.11
2023-01-29T12:57:04.397Z,67.05
2023-01-29T12:59:39.758Z,67.35
2023-01-29T13:02:18.502Z,66.99
2023-01-29T13:04:48.440Z,66.97
2023-01-29T13:07:24.584Z,67.42
2023-01-29T13:09:52.826Z,66.75
2023-01-29T13:12:20.717Z,66.97
2023-01-29T13:15:00.888Z,66.93
2023-01-29T13:17:56.603Z,67.02
2023-01-29T13:20:29.990Z,67.16
2023-01-29T13:22:56.305Z,67.39
2023-01-29T13:25:20.310Z,67.23
2023-01-29T13:27:43.755Z,67.27
2023-01-29T13:30:06.589Z,67.28
2023-01-29T13:32:31.488Z,67.61
2023-01-29T13:34:59.739Z,67.54
2023-01-29T13:37:41.060Z,67.18
2023-01-29T13:40:07.147Z,67.41
2023-01-29T13:43:00.500Z,67.57
2023-01-29T13:45:36.085Z,67.64
2023-01-29T13:48:27.704Z,67.53
2023-01-29T13:50:52.081Z,67.20
2023-01-29T13:53:57.253Z,67.37
2023-01-29T13:56:59.128Z,67.66
2023-01-29T13:59:44.405Z,67.57
2023-01-29T14:02:23.803Z,67.50
2023-01-29T14:04:45.553Z,67.72
2023-01-29T14:07:44.842Z,67.56
2023-01-29T14:10:18.318Z,67.88
2023-01-29T14:12:42.644Z,67.54
2023-01-29T14:15:26.858Z,67.70
2023-01-29T14:18:19.257Z,67.71
2023-01-29T14:20:55.940Z,67.71
2023-01-29T14:23:36.114Z,67.66
2023-01-29T14:26:04.832Z,68.05
2023-01-29T14:28:30.943Z,67.96
2023-01-29T14:30:53.474Z,68.26
2023-01-29T14:33:41.160Z,68.15
2023-01-29T14:36:13.393Z,68.36
2023-01-29T14:38:35.667Z,68.07
2023-01-29T14:41:24.402Z,68.13
2023-01-29T14:43:46.991Z,67.83
2023-01-29T14:46:33.308Z,68.02
2023-01-29T14:48:55.031Z,68.02
2023-01-29T14:51:20.376Z,68.02
2023-01-29T14:53:53.952Z,68.33
2023-01-29T14:56:40.628Z,67.78
2023-01-29T14:59:19.405Z,68.18
2023-01-29T15:01:55.629Z,67.89
2023-01-29T15:04:33.531Z,68.01
2023-01-29T15:07:20.994Z,67.81
2023-01-29T15:09:50.742Z,68.26
2023-01-29T15:12:47.735Z,68.28
2023-01-29T15:15:34.018Z,68.23
2023-01-29T15:18:09.051Z,68.32
2023-01-29T15:20:42.334Z,68.63
2023-01-29T15:23:22.398Z,68.25
2023-01-29T15:25:52.544Z,68.53
2023-01-29T15:28:15.486Z,69.03
2023-01-29T15:30:38.109Z,68.88
2023-01-29T15:33:02.945Z,68.99
2023-01-29T15:35:36.631Z,68.54
2023-01-29T15:38:06.398Z,68.99
2023-01-29T15:40:28.604Z,68.98
2023-01-29T15:42:50.156Z,68.75
2023-01-29T15:45:32.648Z,68.88
2023-01-29T15:48:13.287Z,68.74
2023-01-29T15:50:40.889Z,68.89
2023-01-29T15:53:13.504Z,68.97
2023-01-29T15:55:36.155Z,68.93
2023-01-29T15:57:59.496Z,68.88
2023-01-29T16:00:28.644Z,69.13
2023-01-29T16:02:51.032Z,69.36
2023-01-29T16:05:27.088Z,69.03
2023-01-29T16:07:51.121Z,69.26
2023-01-29T16:10:30.481Z,69.05
2023-01-29T16:12:53.573Z,69.24
2023-01-29T16:15:28.224Z,69.08
2023-01-29T16:17:52.078Z,69.11
2023-01-29T16:20:41.511Z,69.02
2023-01-29T16:23:05.307Z,69.24
2023-01-29T16:25:29.467Z,69.32
2023-01-29T16:27:52.091Z,69.05
2023-01-29T16:30:17.530Z,69.32
2023-01-29T16:32:39.266Z,69.14
2023-01-29T16:35:50.766Z,69.60
2023-01-29T16:41:33.366Z,69.73
2023-01-29T16:44:02.420Z,69.69
2023-01-29T16:46:37.069Z,69.92
2023-01-29T16:48:59.363Z,69.82
2023-01-29T16:51:36.751Z,69.63
2023-01-29T16:54:22.166Z,69.94
2023-01-29T16:56:50.065Z,69.88
2023-01-29T16:59:26.931Z,69.67
2023-01-29T17:01:49.921Z,70.11
2023-01-29T17:04:16.171Z,70.06
2023-01-29T17:06:42.764Z,69.93
2023-01-29T17:09:07.083Z,69.80
2023-01-29T17:11:40.032Z,69.85
2023-01-29T17:14:01.743Z,70.09
2023-01-29T17:16:31.775Z,69.81
2023-01-29T17:18:54.011Z,70.16
2023-01-29T17:21:15.665Z,70.34
2023-01-29T17:23:37.463Z,70.75
2023-01-29T17:25:59.793Z,70.61
2023-01-29T17:28:21.958Z,70.58
2023-01-29T17:30:50.623Z,70.59
2023-01-29T17:33:22.637Z,70.21
2023-01-29T17:35:45.635Z,70.32
2023-01-29T17:38:24.296Z,70.44
2023-01-29T17:40:59.466Z,70.23
2023-01-29T17:43:21.195Z,70.09
2023-01-29T17:45:43.386Z,70.27
2023-01-29T17:48:14.030Z,69.95
2023-01-29T17:50:39.784Z,69.88
2023-01-29T17:53:02.732Z,69.68
2023-01-29T17:55:24.379Z,69.87
2023-01-29T17:57:46.376Z,69.95
2023-01-29T18:00:23.285Z,69.54
2023-01-29T18:02:45.298Z,69.48
2023-01-29T18:05:07.568Z,69.71
2023-01-29T18:07:29.240Z,69.76
2023-01-29T18:09:50.942Z,69.73
2023-01-29T18:12:12.530Z,69.54
2023-01-29T18:14:34.191Z,69.56
2023-01-29T18:16:57.313Z,69.64
2023-01-29T18:19:23.839Z,69.74
2023-01-29T18:21:45.488Z,69.75
2023-01-29T18:24:08.158Z,69.26
2023-01-29T18:26:29.896Z,69.56
2023-01-29T18:28:51.577Z,69.49
2023-01-29T18:31:14.441Z,69.46
2023-01-29T18:33:36.597Z,69.30
2023-01-29T18:35:58.458Z,69.81
2023-01-29T18:38:20.280Z,69.73
2023-01-29T18:40:42.070Z,69.85
2023-01-29T18:43:04.302Z,70.04
2023-01-29T18:45:26.225Z,70.32
2023-01-29T18:47:48.718Z,70.51
2023-01-29T18:50:11.924Z,70.70
2023-01-29T18:52:34.357Z,70.83
2023-01-29T18:54:56.052Z,70.95
2023-01-29T18:58:26.655Z,70.86
2023-01-29T18:59:59.365Z,71.17
2023-01-29T19:02:21.651Z,70.67
2023-01-29T19:04:43.616Z,71.21
2023-01-29T19:07:05.357Z,71.01
2023-01-29T19:09:27.513Z,71.27
2023-01-29T19:11:49.131Z,71.17
2023-01-29T19:14:10.809Z,71.13
2023-01-29T19:16:32.396Z,71.77
2023-01-29T19:18:55.985Z,71.83
2023-01-29T19:21:17.900Z,72.41
2023-01-29T19:23:41.154Z,72.35
2023-01-29T19:26:02.796Z,72.44
2023-01-29T19:28:24.397Z,73.05
2023-01-29T19:30:46.094Z,73.09
2023-01-29T19:33:09.759Z,73.21
2023-01-29T19:35:32.622Z,73.54
2023-01-29T19:37:54.955Z,73.68
2023-01-29T19:40:17.137Z,73.84
2023-01-29T19:42:38.902Z,73.46
2023-01-29T19:45:00.700Z,73.98
2023-01-29T19:47:22.447Z,74.40
2023-01-29T19:49:44.749Z,74.64
2023-01-29T19:52:14.741Z,74.63
2023-01-29T19:54:36.429Z,74.12
2023-01-29T19:56:58.117Z,74.25
2023-01-29T19:59:20.876Z,74.76
2023-01-29T20:01:42.647Z,74.80
2023-01-29T20:04:04.585Z,74.62
2023-01-29T20:06:30.983Z,74.75
2023-01-29T20:08:52.736Z,74.88
2023-01-29T20:11:17.152Z,75.31
2023-01-29T20:13:38.736Z,75.39
2023-01-29T20:16:04.723Z,74.86
2023-01-29T20:18:26.393Z,75.19
2023-01-29T20:20:52.955Z,75.36
2023-01-29T20:23:28.007Z,75.45
2023-01-29T20:26:00.524Z,75.74
2023-01-29T20:28:22.227Z,75.67
2023-01-29T20:30:45.486Z,75.80
2023-01-29T20:33:07.886Z,75.71
2023-01-29T20:35:31.342Z,75.68
2023-01-29T20:37:53.143Z,75.61
2023-01-29T20:40:15.712Z,76.28
2023-01-29T20:42:37.685Z,76.06
2023-01-29T20:44:59.298Z,76.10
2023-01-29T20:47:20.942Z,76.24
2023-01-29T20:49:42.710Z,75.82
2023-01-29T20:52:04.450Z,76.20
2023-01-29T20:54:26.296Z,75.98
2023-01-29T20:56:48.244Z,76.18
2023-01-29T20:59:10.412Z,76.49
2023-01-29T21:01:32.068Z,76.70
2023-01-29T21:03:53.745Z,76.79
2023-01-29T21:06:15.975Z,77.07
2023-01-29T21:08:39.199Z,76.95
2023-01-29T21:11:01.946Z,77.30
2023-01-29T21:13:23.551Z,77.54
2023-01-29T21:15:45.407Z,77.67
2023-01-29T21:18:07.141Z,77.76
2023-01-29T21:20:28.747Z,77.55
2023-01-29T21:22:50.435Z,77.78
2023-01-29T21:25:12.155Z,77.78
2023-01-29T21:27:33.857Z,78.13
2023-01-29T21:29:55.700Z,78.02
2023-01-29T21:32:18.819Z,78.17
2023-01-29T21:34:41.314Z,78.08
2023-01-29T21:37:03.001Z,77.92
2023-01-29T21:39:26.353Z,77.88
2023-01-29T21:42:09.980Z,77.94
2023-01-29T21:44:33.636Z,77.75
2023-01-29T21:46:55.341Z,77.74
2023-01-29T21:49:17.006Z,78.05
2023-01-29T21:51:38.711Z,77.98
2023-01-29T21:54:00.279Z,78.36
2023-01-29T21:56:21.947Z,78.44
2023-01-29T21:58:43.664Z,78.37
2023-01-29T22:01:35.125Z,78.15
2023-01-29T22:03:48.231Z,78.09
2023-01-29T22:06:09.963Z,78.44
2023-01-29T22:08:32.757Z,78.38
2023-01-29T22:10:54.480Z,78.70
2023-01-29T22:13:16.337Z,78.70
2023-01-29T22:15:37.994Z,78.59
2023-01-29T22:17:59.576Z,78.84
2023-01-29T22:20:29.497Z,78.83
2023-01-29T22:22:51.170Z,79.00
2023-01-29T22:25:12.896Z,78.94
2023-01-29T22:27:34.906Z,79.49
2023-01-29T22:29:56.575Z,79.09
2023-01-29T22:32:18.355Z,79.46
2023-01-29T22:34:40.090Z,79.54
2023-01-29T22:37:01.792Z,79.55
2023-01-29T22:39:23.434Z,79.68
2023-01-29T22:41:45.126Z,79.39
2023-01-29T22:44:06.757Z,79.66
2023-01-29T22:46:28.701Z,79.72
2023-01-29T22:48:50.344Z,80.21
2023-01-29T22:51:13.759Z,80.61
2023-01-29T22:53:44.065Z,80.02
2023-01-29T22:56:06.854Z,80.71
2023-01-29T22:58:28.522Z,80.42
2023-01-29T23:00:51.339Z,80.42
2023-01-29T23:03:12.966Z,80.64
2023-01-29T23:05:34.625Z,80.54
2023-01-29T23:07:56.226Z,80.88
2023-01-29T23:10:18.164Z,80.93
2023-01-29T23:12:40.383Z,81.66
2023-01-29T23:15:02.040Z,81.84
2023-01-29T23:17:23.687Z,81.58
2023-01-29T23:19:45.366Z,81.47
2023-01-29T23:22:07.267Z,81.49
2023-01-29T23:24:28.870Z,81.62
2023-01-29T23:27:09.186Z,81.48
2023-01-29T23:29:30.922Z,81.67
2023-01-29T23:31:52.598Z,82.42
2023-01-29T23:34:15.130Z,81.93
2023-01-29T23:36:36.927Z,81.86
2023-01-29T23:38:58.572Z,82.23
2023-01-29T23:41:21.228Z,81.90
2023-01-29T23:43:42.909Z,81.96
2023-01-29T23:46:04.726Z,81.89
2023-01-29T23:48:26.848Z,81.66
